Mazy — 9HB2808 — position and weather

sailwx.info

Track history (hours):
 
Tides and Currents Weather Stations Pressure Air Temp Water Temp Dewpoint Dewpoint Depression Visibility Wind Speed Wind Dir Waves Ship Positions

Mazy

Last reported at 2016-Jun-29 05:33 UTC. Time now 2016-Jun-30 01:32 UTC.
Position N 37°04' E 025°17'.

Length 39 m; draft 2.3 m.

Type: Pleasure craft. MMSI: 229043000.

Date/timePositionNaut miles runAvg speedWind from/ knotsBaromVisibWave heightAir tempDewpointWater temp
2016-Jun-29 05:33N 37°04' E 025°17'1110.9
2016-Jun-29 04:33N 37°14' E 025°17'1110.9
2016-Jun-29 03:33N 37°25' E 025°17'2 2.4
2016-Jun-29 02:32N 37°27' E 025°20'0 0.0
2016-Jun-28 22:26N 37°27' E 025°20'0 0.0
2016-Jun-28 21:32N 37°27' E 025°20'0 0.0
2016-Jun-28 19:32N 37°27' E 025°20'0 0.0
2016-Jun-28 18:29N 37°27' E 025°20'0 0.0
2016-Jun-28 17:32N 37°27' E 025°20'0 0.0
2016-Jun-28 16:32N 37°27' E 025°20'5 0.1
2016-Jun-26 16:31N 37°26' E 025°13'1 0.8
2016-Jun-26 15:31N 37°26' E 025°12'0 0.0
2016-Jun-26 13:10N 37°26' E 025°12'0 0.0
2016-Jun-26 12:25N 37°26' E 025°12'0 0.0
2016-Jun-26 11:28N 37°26' E 025°12'0 0.0
2016-Jun-26 10:31N 37°26' E 025°12'0 0.0
2016-Jun-26 09:31N 37°26' E 025°12'0 0.0
2016-Jun-26 08:31N 37°26' E 025°12'6 0.1
2016-Jun-24 11:28N 37°27' E 025°20'0 0.0
2016-Jun-23 19:28N 37°27' E 025°20'6 6.4
2016-Jun-23 18:32N 37°28' E 025°12'6011.8
2016-Jun-23 13:26N 37°38' E 023°57'1112.1
2016-Jun-23 12:33N 37°43' E 023°45'1212.0
2016-Jun-23 11:33N 37°47' E 023°31'2411.4
2016-Jun-23 09:25N 37°54' E 023°02'7510.9
2016-Jun-23 02:33N 38°16' E 021°30'25710.6
2016-Jun-22 02:18N 41°57' E 018°39'911.6
2016-Jun-22 01:33N 42°05' E 018°36'1212.1
2016-Jun-22 00:33N 42°17' E 018°34'9 9.0
2016-Jun-21 23:33N 42°26' E 018°37'3 2.9
2016-Jun-21 22:33N 42°26' E 018°41'0 0.0
2016-Jun-21 21:33N 42°26' E 018°41'0 0.0
2016-Jun-21 20:33N 42°26' E 018°41'0 0.0
2016-Jun-21 19:33N 42°26' E 018°41'0 0.0
2016-Jun-21 18:33N 42°26' E 018°41'0 0.0
2016-Jun-21 17:33N 42°26' E 018°41'0 0.1
2016-Jun-21 16:32N 42°26' E 018°41'1 0.6
2016-Jun-21 15:33N 42°26' E 018°42'0 0.0
2016-Jun-21 14:33N 42°26' E 018°42'0 0.0
2016-Jun-21 13:33N 42°26' E 018°42'0 0.0
2016-Jun-21 12:33N 42°26' E 018°42'0 0.0
2016-Jun-21 11:33N 42°26' E 018°42'0 0.0
2016-Jun-21 10:33N 42°26' E 018°42'0 0.0
2016-Jun-21 09:33N 42°26' E 018°42'0 0.0
2016-Jun-21 08:33N 42°26' E 018°42'0 0.3
2016-Jun-21 07:33N 42°26' E 018°41'0 0.2
2016-Jun-21 04:32N 42°26' E 018°41'0 0.0
2016-Jun-21 03:32N 42°26' E 018°41'0 0.0
2016-Jun-21 02:32N 42°26' E 018°41'0 0.0
2016-Jun-21 01:32N 42°26' E 018°41'0 0.0
2016-Jun-21 00:32N 42°26' E 018°41'0 0.0
2016-Jun-20 23:32N 42°26' E 018°41'0 0.0
2016-Jun-20 22:32N 42°26' E 018°41'0 0.0
2016-Jun-20 21:32N 42°26' E 018°41'0 0.0
2016-Jun-20 20:32N 42°26' E 018°41'0 0.0
2016-Jun-20 19:33N 42°26' E 018°41'8 8.1
2016-Jun-20 18:33N 42°21' E 018°33'1312.3
2016-Jun-20 17:32N 42°09' E 018°33'28311.3
2016-Jun-19 16:33N 37°54' E 015°54'1111.6
2016-Jun-19 15:33N 37°56' E 015°39'1312.6
2016-Jun-19 14:34N 38°08' E 015°36'1010.2
2016-Jun-19 13:33N 38°18' E 015°39'1312.6
2016-Jun-19 12:33N 38°28' E 015°29'1312.2
2016-Jun-19 11:31N 38°38' E 015°18'  
Track history (hours):
 
Tides and Currents Weather Stations Pressure Air Temp Water Temp Dewpoint Dewpoint Depression Visibility Wind Speed Wind Dir Waves Ship Positions

Mazy

Last reported at 2016-Jun-29 05:33 UTC. Time now 2016-Jun-30 01:32 UTC.
Position N 37°04' E 025°17'.

Length 39 m; draft 2.3 m.

Type: Pleasure craft. MMSI: 229043000.

Date/timePositionNaut miles runAvg speedWind from/ knotsBaromVisibWave heightAir tempDewpointWater temp
2016-Jun-29 05:33N 37°04' E 025°17'1110.9
2016-Jun-29 04:33N 37°14' E 025°17'1110.9
2016-Jun-29 03:33N 37°25' E 025°17'2 2.4
2016-Jun-29 02:32N 37°27' E 025°20'0 0.0
2016-Jun-28 22:26N 37°27' E 025°20'0 0.0
2016-Jun-28 21:32N 37°27' E 025°20'0 0.0
2016-Jun-28 19:32N 37°27' E 025°20'0 0.0
2016-Jun-28 18:29N 37°27' E 025°20'0 0.0
2016-Jun-28 17:32N 37°27' E 025°20'0 0.0
2016-Jun-28 16:32N 37°27' E 025°20'5 0.1
2016-Jun-26 16:31N 37°26' E 025°13'1 0.8
2016-Jun-26 15:31N 37°26' E 025°12'0 0.0
2016-Jun-26 13:10N 37°26' E 025°12'0 0.0
2016-Jun-26 12:25N 37°26' E 025°12'0 0.0
2016-Jun-26 11:28N 37°26' E 025°12'0 0.0
2016-Jun-26 10:31N 37°26' E 025°12'0 0.0
2016-Jun-26 09:31N 37°26' E 025°12'0 0.0
2016-Jun-26 08:31N 37°26' E 025°12'6 0.1
2016-Jun-24 11:28N 37°27' E 025°20'0 0.0
2016-Jun-23 19:28N 37°27' E 025°20'6 6.4
2016-Jun-23 18:32N 37°28' E 025°12'6011.8
2016-Jun-23 13:26N 37°38' E 023°57'1112.1
2016-Jun-23 12:33N 37°43' E 023°45'1212.0
2016-Jun-23 11:33N 37°47' E 023°31'2411.4
2016-Jun-23 09:25N 37°54' E 023°02'7510.9
2016-Jun-23 02:33N 38°16' E 021°30'25710.6
2016-Jun-22 02:18N 41°57' E 018°39'911.6
2016-Jun-22 01:33N 42°05' E 018°36'1212.1
2016-Jun-22 00:33N 42°17' E 018°34'9 9.0
2016-Jun-21 23:33N 42°26' E 018°37'3 2.9
2016-Jun-21 22:33N 42°26' E 018°41'0 0.0
2016-Jun-21 21:33N 42°26' E 018°41'0 0.0
2016-Jun-21 20:33N 42°26' E 018°41'0 0.0
2016-Jun-21 19:33N 42°26' E 018°41'0 0.0
2016-Jun-21 18:33N 42°26' E 018°41'0 0.0
2016-Jun-21 17:33N 42°26' E 018°41'0 0.1
2016-Jun-21 16:32N 42°26' E 018°41'1 0.6
2016-Jun-21 15:33N 42°26' E 018°42'0 0.0
2016-Jun-21 14:33N 42°26' E 018°42'0 0.0
2016-Jun-21 13:33N 42°26' E 018°42'0 0.0
2016-Jun-21 12:33N 42°26' E 018°42'0 0.0
2016-Jun-21 11:33N 42°26' E 018°42'0 0.0
2016-Jun-21 10:33N 42°26' E 018°42'0 0.0
2016-Jun-21 09:33N 42°26' E 018°42'0 0.0
2016-Jun-21 08:33N 42°26' E 018°42'0 0.3
2016-Jun-21 07:33N 42°26' E 018°41'0 0.2
2016-Jun-21 04:32N 42°26' E 018°41'0 0.0
2016-Jun-21 03:32N 42°26' E 018°41'0 0.0
2016-Jun-21 02:32N 42°26' E 018°41'0 0.0
2016-Jun-21 01:32N 42°26' E 018°41'0 0.0
2016-Jun-21 00:32N 42°26' E 018°41'0 0.0
2016-Jun-20 23:32N 42°26' E 018°41'0 0.0
2016-Jun-20 22:32N 42°26' E 018°41'0 0.0
2016-Jun-20 21:32N 42°26' E 018°41'0 0.0
2016-Jun-20 20:32N 42°26' E 018°41'0 0.0
2016-Jun-20 19:33N 42°26' E 018°41'8 8.1
2016-Jun-20 18:33N 42°21' E 018°33'1312.3
2016-Jun-20 17:32N 42°09' E 018°33'28311.3
2016-Jun-19 16:33N 37°54' E 015°54'1111.6
2016-Jun-19 15:33N 37°56' E 015°39'1312.6
2016-Jun-19 14:34N 38°08' E 015°36'1010.2
2016-Jun-19 13:33N 38°18' E 015°39'1312.6
2016-Jun-19 12:33N 38°28' E 015°29'1312.2
2016-Jun-19 11:31N 38°38' E 015°18'  

Dump ship's entire track history